Alco, AR

6:15 PM CST on November 25, 2014 (GMT -0600)
Alco | Change Station
CLOSE
Current Station
Personal Weather Station
Location: Leslie, AR
Elevation: 1729 ft
Nearby Weather Stations

Elev 1729 ft 35.88 °N, 92.38 °W | Updated 1 minute ago

Clear
Clear
41.5 °F
Feels Like 42 °F
N
3.0
Wind Variable Wind from NNE
Gusts 4.0 mph

Today
High -- | Low -- °F
--% Chance of Precip.
Yesterday
High -- | Low -- °F
Precip. -- in
6:55 AM 4:57 PM
Waxing Crescent, 15% visible
Pressure 30.19 in
Visibility 10.0 miles
Clouds Clear
Windchill 42 °F
Dew Point 17 °F
Humidity 38%
Rainfall 0.00 in
Snow Depth Not available.
UV 0 out of 12
Pollen 3.40 out of 12
Air Quality Not available.
Flu Activity Not available.
METAR KCCA 252355Z AUTO 00000KT 10SM CLR 03/M01 A3019 RMK AO2

More Conditions Fewer Conditions

Pressure 30.19 in
Visibility 10.0 miles
Clouds Clear
Windchill 42 °F
Dew Point 17 °F
Humidity 38%
Rainfall 0.00 in
Snow Depth Not available.
UV 0 out of 12
Pollen 3.40 out of 12
Air Quality Not available.
Flu Activity Not available.
METAR KCCA 252355Z AUTO 00000KT 10SM CLR 03/M01 A3019 RMK AO2

More Conditions Fewer Conditions

10-Day Weather Forecast

Almanac

Astronomy

Nov. 25, 2014 Rise Set
Actual Time
Civil Twilight
Nautical Twilight
Astronomical Twilight
Moon
Length of Visible Light
Length of Day
Tomorrow will be .
, % of the Moon is Illuminated

Today's Extremes

State Highs State Lows

Community

WunderPhotos

Upload Photos

1,773,625 photos uploaded!

WunderBlogs® & News

Nearby

Air Quality

  Air Quality AQ Index Pollutant
Not available.

Snow Depth

Station Depth Elevation

Earthquake Activity

City Distance Mag. Time & Date
Minimum magnitude displayed is 2.5.

Coastal Water Temperatures

Place Temperature

Nearby Weather Stations